createdAt,value
2022-08-22T00:04:37.525Z,86.21
2022-08-22T00:10:02.179Z,86.07
2022-08-22T00:15:42.638Z,85.90
2022-08-22T00:21:12.820Z,85.97
2022-08-22T00:26:45.408Z,85.94
2022-08-22T00:32:08.676Z,85.93
2022-08-22T00:37:51.103Z,86.00
2022-08-22T00:43:35.452Z,86.11
2022-08-22T00:49:13.973Z,86.13
2022-08-22T00:55:10.293Z,86.07
2022-08-22T01:00:23.237Z,86.22
2022-08-22T01:05:58.177Z,86.35
2022-08-22T01:11:26.464Z,86.28
2022-08-22T01:17:11.824Z,86.22
2022-08-22T01:23:14.698Z,86.19
2022-08-22T01:28:37.366Z,86.31
2022-08-22T01:34:36.559Z,86.45
2022-08-22T01:40:18.914Z,86.56
2022-08-22T01:45:57.701Z,86.72
2022-08-22T01:51:57.173Z,86.79
2022-08-22T01:57:09.602Z,86.90
2022-08-22T02:02:53.560Z,86.95
2022-08-22T02:08:21.839Z,87.01
2022-08-22T02:14:00.973Z,87.21
2022-08-22T02:19:10.557Z,87.33
2022-08-22T02:24:26.243Z,87.36
2022-08-22T02:29:51.020Z,87.42
2022-08-22T02:35:49.925Z,87.43
2022-08-22T02:41:36.715Z,87.40
2022-08-22T02:47:29.328Z,87.35
2022-08-22T02:52:43.486Z,87.30
2022-08-22T02:58:25.245Z,87.39
2022-08-22T03:03:39.210Z,87.47
2022-08-22T03:09:30.151Z,87.70
2022-08-22T03:15:19.288Z,87.89
2022-08-22T03:21:09.963Z,87.93
2022-08-22T03:26:28.651Z,88.06
2022-08-22T03:31:33.689Z,88.18
2022-08-22T03:36:38.539Z,88.38
2022-08-22T03:42:21.260Z,88.40
2022-08-22T03:48:04.468Z,88.43
2022-08-22T03:53:47.162Z,88.48
2022-08-22T03:59:02.798Z,88.51
2022-08-22T04:04:25.968Z,88.47
2022-08-22T04:09:53.235Z,88.49
2022-08-22T04:15:12.116Z,88.50
2022-08-22T04:20:51.549Z,88.46
2022-08-22T04:26:08.561Z,88.51
2022-08-22T04:31:27.896Z,88.54
2022-08-22T04:36:51.339Z,88.60
2022-08-22T04:42:33.454Z,88.63
2022-08-22T04:48:20.760Z,88.68
2022-08-22T04:53:50.596Z,88.47
2022-08-22T04:59:18.424Z,88.29
2022-08-22T05:04:33.110Z,88.30
2022-08-22T05:09:43.718Z,88.25
2022-08-22T05:14:58.908Z,88.00
2022-08-22T05:20:14.208Z,87.67
2022-08-22T05:25:42.301Z,87.67
2022-08-22T05:30:49.824Z,87.64
2022-08-22T05:36:08.769Z,87.68
2022-08-22T05:41:24.223Z,87.62
2022-08-22T05:46:34.029Z,87.63
2022-08-22T05:51:51.260Z,87.50
2022-08-22T05:57:10.650Z,87.38
2022-08-22T06:02:21.168Z,87.21
2022-08-22T06:07:51.480Z,87.17
2022-08-22T06:13:03.607Z,87.04
2022-08-22T06:18:15.870Z,87.01
2022-08-22T06:23:31.801Z,87.06
2022-08-22T06:28:55.430Z,86.90
2022-08-22T06:34:04.296Z,86.67
2022-08-22T06:39:31.600Z,86.72
2022-08-22T06:45:12.779Z,86.74
2022-08-22T06:50:43.966Z,86.82
2022-08-22T06:55:57.488Z,86.86
2022-08-22T07:01:14.920Z,86.76
2022-08-22T07:06:37.701Z,86.67
2022-08-22T07:11:45.403Z,86.43
2022-08-22T07:17:02.634Z,86.28
2022-08-22T07:22:30.407Z,86.07
2022-08-22T07:28:15.878Z,85.98
2022-08-22T07:33:41.009Z,85.73
2022-08-22T07:39:13.891Z,85.42
2022-08-22T07:44:24.942Z,85.46
2022-08-22T07:49:51.253Z,85.22
2022-08-22T07:55:20.640Z,84.93
2022-08-22T08:00:29.421Z,84.95
2022-08-22T08:05:38.321Z,84.46
2022-08-22T08:10:43.326Z,84.24
2022-08-22T08:15:50.181Z,84.12
2022-08-22T08:21:04.529Z,83.73
2022-08-22T08:26:17.944Z,83.32
2022-08-22T08:31:43.145Z,83.26
2022-08-22T08:37:24.512Z,83.49
2022-08-22T08:43:21.038Z,83.25
2022-08-22T08:49:12.767Z,82.49
2022-08-22T08:55:19.656Z,81.96
2022-08-22T09:01:08.200Z,81.07
2022-08-22T09:07:03.069Z,79.28
2022-08-22T09:12:21.430Z,78.39
2022-08-22T09:17:28.221Z,78.68
2022-08-22T09:23:02.453Z,78.96
2022-08-22T09:28:17.846Z,78.79
2022-08-22T09:33:32.067Z,78.68
2022-08-22T09:39:06.745Z,78.74
2022-08-22T09:44:34.515Z,78.78
2022-08-22T09:50:12.929Z,79.32
2022-08-22T09:55:42.953Z,79.49
2022-08-22T10:01:09.122Z,78.79
2022-08-22T10:06:25.201Z,78.49
2022-08-22T10:11:50.133Z,78.08
2022-08-22T10:17:12.511Z,77.73
2022-08-22T10:22:57.565Z,77.64
2022-08-22T10:28:43.290Z,77.24
2022-08-22T10:34:13.858Z,76.64
2022-08-22T10:39:29.871Z,75.96
2022-08-22T10:45:23.565Z,75.86
2022-08-22T10:51:04.106Z,75.61
2022-08-22T10:56:22.559Z,75.22
2022-08-22T11:01:49.141Z,75.16
2022-08-22T11:07:22.517Z,74.25
2022-08-22T11:12:43.576Z,73.14
2022-08-22T11:18:24.000Z,70.96
2022-08-22T11:24:05.050Z,71.57
2022-08-22T11:29:27.734Z,72.29
2022-08-22T11:34:51.871Z,72.67
2022-08-22T11:40:14.519Z,72.04
2022-08-22T11:45:31.190Z,69.65
2022-08-22T11:50:56.424Z,68.86
2022-08-22T11:56:40.187Z,68.38
2022-08-22T12:01:56.403Z,67.94
2022-08-22T12:07:28.602Z,67.43
2022-08-22T12:13:04.510Z,67.25
2022-08-22T12:18:30.152Z,66.97
2022-08-22T12:23:50.288Z,66.89
2022-08-22T12:29:59.462Z,66.52
2022-08-22T12:35:29.935Z,65.75
2022-08-22T12:41:12.313Z,65.36
2022-08-22T12:46:46.781Z,65.30
2022-08-22T12:52:12.567Z,66.21
2022-08-22T12:57:50.512Z,66.48
2022-08-22T13:03:10.012Z,65.88
2022-08-22T13:08:42.037Z,65.72
2022-08-22T13:13:56.470Z,65.08
2022-08-22T13:19:14.605Z,64.02
2022-08-22T13:24:39.503Z,62.65
2022-08-22T13:29:58.072Z,62.03
2022-08-22T13:35:05.678Z,61.12
2022-08-22T13:40:22.084Z,60.46
2022-08-22T13:45:30.763Z,60.43
2022-08-22T13:51:08.148Z,61.35
2022-08-22T13:56:34.328Z,60.93
2022-08-22T14:02:00.480Z,59.94
2022-08-22T14:07:06.729Z,60.13
2022-08-22T14:12:19.290Z,60.01
2022-08-22T14:17:42.659Z,60.24
2022-08-22T14:23:03.985Z,59.85
2022-08-22T14:28:27.464Z,61.28
2022-08-22T14:34:10.812Z,62.12
2022-08-22T14:39:50.903Z,62.79
2022-08-22T14:45:10.551Z,63.94
2022-08-22T14:50:56.486Z,64.43
2022-08-22T14:56:12.339Z,65.10
2022-08-22T15:01:26.919Z,65.50
2022-08-22T15:06:54.610Z,65.81
2022-08-22T15:12:01.769Z,66.43
2022-08-22T15:17:11.783Z,66.64
2022-08-22T15:22:28.750Z,66.14
2022-08-22T15:27:43.369Z,63.88
2022-08-22T15:32:49.387Z,62.44
2022-08-22T15:38:06.480Z,62.69
2022-08-22T15:43:35.592Z,61.29
2022-08-22T15:48:43.070Z,60.78
2022-08-22T15:54:24.887Z,59.69
2022-08-22T15:59:53.491Z,58.49
2022-08-22T16:05:16.309Z,57.72
2022-08-22T16:10:23.353Z,57.64
2022-08-22T16:15:52.895Z,57.33
2022-08-22T16:21:19.301Z,57.94
2022-08-22T16:26:33.085Z,58.75
2022-08-22T16:31:57.260Z,59.10
2022-08-22T16:37:04.679Z,59.81
2022-08-22T16:42:14.816Z,60.56
2022-08-22T16:47:37.609Z,61.30
2022-08-22T16:53:02.314Z,62.17
2022-08-22T16:58:59.208Z,62.85
2022-08-22T17:05:22.494Z,63.60
2022-08-22T17:10:51.191Z,64.76
2022-08-22T17:16:41.073Z,65.71
2022-08-22T17:22:07.819Z,66.45
2022-08-22T17:27:40.345Z,67.07
2022-08-22T17:33:03.432Z,67.74
2022-08-22T17:38:19.795Z,68.17
2022-08-22T17:44:15.201Z,68.82
2022-08-22T17:49:34.066Z,69.33
2022-08-22T17:55:02.862Z,69.80
2022-08-22T18:00:19.510Z,70.21
2022-08-22T18:05:46.179Z,70.44
2022-08-22T18:11:17.192Z,70.88
2022-08-22T18:16:46.659Z,71.21
2022-08-22T18:21:56.725Z,71.36
2022-08-22T18:27:29.983Z,71.28
2022-08-22T18:33:01.514Z,71.58
2022-08-22T18:38:21.235Z,72.16
2022-08-22T18:43:42.468Z,72.45
2022-08-22T18:49:13.708Z,72.79
2022-08-22T18:54:37.093Z,73.17
2022-08-22T19:00:21.815Z,73.40
2022-08-22T19:05:42.703Z,73.75
2022-08-22T19:10:55.087Z,74.17
2022-08-22T19:16:21.645Z,74.61
2022-08-22T19:21:57.086Z,74.83
2022-08-22T19:27:21.977Z,75.07
2022-08-22T19:32:47.635Z,75.49
2022-08-22T19:38:05.832Z,75.81
2022-08-22T19:43:42.514Z,75.91
2022-08-22T19:48:53.199Z,76.27
2022-08-22T19:54:02.907Z,76.35
2022-08-22T19:59:23.714Z,76.53
2022-08-22T20:04:50.171Z,76.94
2022-08-22T20:10:15.688Z,77.24
2022-08-22T20:15:26.387Z,77.46
2022-08-22T20:20:58.985Z,77.66
2022-08-22T20:26:04.558Z,77.94
2022-08-22T20:31:24.833Z,77.90
2022-08-22T20:36:30.445Z,78.07
2022-08-22T20:41:46.356Z,78.32
2022-08-22T20:46:58.135Z,78.20
2022-08-22T20:52:22.302Z,78.03
2022-08-22T20:57:27.120Z,78.42
2022-08-22T21:02:36.514Z,78.56
2022-08-22T21:08:02.661Z,78.68
2022-08-22T21:13:38.110Z,78.76
2022-08-22T21:18:54.226Z,78.71
2022-08-22T21:24:10.026Z,78.89
2022-08-22T21:29:13.851Z,79.08
2022-08-22T21:34:43.196Z,79.14
2022-08-22T21:39:53.091Z,79.43
2022-08-22T21:45:27.362Z,79.68
2022-08-22T21:50:38.873Z,79.83
2022-08-22T21:55:47.358Z,79.86
2022-08-22T22:00:57.634Z,80.03
2022-08-22T22:06:06.013Z,80.23
2022-08-22T22:11:16.697Z,80.33
2022-08-22T22:16:28.078Z,80.55
2022-08-22T22:21:32.434Z,80.73
2022-08-22T22:26:36.963Z,80.85
2022-08-22T22:31:44.176Z,81.03
2022-08-22T22:36:48.316Z,81.12
2022-08-22T22:41:52.549Z,81.21
2022-08-22T22:47:05.420Z,81.40
2022-08-22T22:52:11.649Z,81.56
2022-08-22T22:57:19.982Z,81.68
2022-08-22T23:02:32.951Z,81.82
2022-08-22T23:07:39.215Z,81.89
2022-08-22T23:12:44.598Z,81.96
2022-08-22T23:17:49.332Z,81.98
2022-08-22T23:22:54.088Z,82.14
2022-08-22T23:27:58.565Z,82.29
2022-08-22T23:33:03.190Z,82.41
2022-08-22T23:38:07.782Z,82.56
2022-08-22T23:43:11.967Z,82.51
2022-08-22T23:48:16.103Z,82.60
2022-08-22T23:53:22.996Z,82.60
2022-08-22T23:58:27.250Z,82.56
